createdAt,value
2023-02-18T00:03:38.876Z,1.23
2023-02-18T00:08:42.695Z,1.37
2023-02-18T00:13:51.512Z,1.23
2023-02-18T00:18:56.726Z,1.40
2023-02-18T00:24:00.035Z,0.90
2023-02-18T00:29:04.909Z,1.10
2023-02-18T00:34:08.317Z,1.10
2023-02-18T00:39:12.770Z,1.00
2023-02-18T00:44:17.329Z,1.20
2023-02-18T00:49:20.448Z,1.10
2023-02-18T00:54:23.569Z,0.90
2023-02-18T00:59:28.065Z,0.90
2023-02-18T01:04:31.271Z,1.07
2023-02-18T01:09:34.439Z,1.30
2023-02-18T01:14:38.935Z,1.10
2023-02-18T01:19:42.157Z,1.10
2023-02-18T01:24:46.428Z,1.00
2023-02-18T01:29:51.108Z,1.10
2023-02-18T01:34:54.239Z,1.03
2023-02-18T01:39:57.568Z,1.07
2023-02-18T01:45:34.299Z,1.20
2023-02-18T01:50:42.830Z,1.10
2023-02-18T01:55:46.146Z,1.10
2023-02-18T02:00:49.383Z,1.10
2023-02-18T02:05:53.846Z,1.00
2023-02-18T02:11:13.176Z,0.80
2023-02-18T02:16:28.710Z,0.90
2023-02-18T02:22:09.086Z,0.73
2023-02-18T02:27:16.982Z,0.90
2023-02-18T02:32:47.102Z,0.80
2023-02-18T02:37:59.046Z,0.90
2023-02-18T02:43:12.817Z,0.77
2023-02-18T02:48:24.361Z,0.80
2023-02-18T02:53:31.733Z,0.90
2023-02-18T02:58:35.044Z,1.00
2023-02-18T03:03:57.542Z,0.90
2023-02-18T03:09:11.395Z,0.77
2023-02-18T03:14:23.210Z,0.93
2023-02-18T03:19:30.999Z,0.80
2023-02-18T03:24:38.848Z,1.00
2023-02-18T03:29:43.514Z,1.10
2023-02-18T03:34:52.285Z,1.00
2023-02-18T03:40:00.072Z,1.00
2023-02-18T03:45:03.564Z,0.97
2023-02-18T03:50:08.032Z,0.90
2023-02-18T03:55:12.941Z,1.00
2023-02-18T04:00:16.591Z,0.90
2023-02-18T04:05:19.878Z,1.00
2023-02-18T04:10:24.339Z,0.90
2023-02-18T04:15:27.553Z,1.00
2023-02-18T04:20:30.814Z,1.07
2023-02-18T04:25:35.292Z,1.00
2023-02-18T04:30:38.559Z,1.00
2023-02-18T04:35:42.125Z,1.10
2023-02-18T04:40:46.678Z,1.00
2023-02-18T04:45:49.843Z,0.90
2023-02-18T04:50:52.963Z,1.00
2023-02-18T04:55:57.411Z,1.00
2023-02-18T05:01:01.739Z,1.03
2023-02-18T05:06:05.432Z,1.17
2023-02-18T05:11:10.277Z,1.30
2023-02-18T05:16:13.982Z,1.30
2023-02-18T05:21:17.162Z,1.30
2023-02-18T05:26:21.656Z,1.10
2023-02-18T05:31:24.849Z,1.10
2023-02-18T05:36:28.118Z,1.10
2023-02-18T05:41:32.650Z,1.10
2023-02-18T05:46:35.886Z,1.00
2023-02-18T05:51:39.151Z,1.10
2023-02-18T05:56:43.681Z,1.87
2023-02-18T06:01:47.716Z,1.30
2023-02-18T06:06:51.075Z,1.17
2023-02-18T06:11:55.547Z,1.20
2023-02-18T06:16:58.655Z,1.27
2023-02-18T06:22:01.853Z,1.07
2023-02-18T06:27:06.429Z,1.00
2023-02-18T06:32:09.623Z,1.00
2023-02-18T06:37:12.823Z,1.00
2023-02-18T06:42:17.485Z,1.10
2023-02-18T06:47:20.646Z,1.80
2023-02-18T06:52:23.782Z,1.97
2023-02-18T06:57:28.251Z,1.27
2023-02-18T07:02:31.382Z,1.50
2023-02-18T07:07:34.586Z,1.50
2023-02-18T07:12:39.097Z,1.60
2023-02-18T07:17:42.307Z,1.43
2023-02-18T07:22:45.475Z,1.40
2023-02-18T07:27:50.041Z,1.67
2023-02-18T07:32:53.163Z,1.10
2023-02-18T07:37:57.882Z,0.90
2023-02-18T07:43:02.369Z,0.83
2023-02-18T07:48:05.530Z,0.90
2023-02-18T07:53:09.201Z,0.90
2023-02-18T07:58:13.756Z,1.37
2023-02-18T08:03:17.546Z,0.90
2023-02-18T08:08:24.237Z,1.50
2023-02-18T08:13:28.740Z,1.50
2023-02-18T08:18:31.817Z,1.70
2023-02-18T08:23:35.018Z,1.30
2023-02-18T08:28:39.494Z,1.40
2023-02-18T08:33:42.571Z,1.20
2023-02-18T08:38:45.795Z,1.50
2023-02-18T08:43:50.701Z,1.40
2023-02-18T08:48:53.874Z,1.10
2023-02-18T08:53:57.226Z,1.30
2023-02-18T08:59:01.682Z,1.30
2023-02-18T09:04:05.039Z,1.07
2023-02-18T09:09:08.491Z,1.20
2023-02-18T09:14:13.290Z,1.20
2023-02-18T09:19:16.444Z,1.60
2023-02-18T09:24:19.697Z,1.00
2023-02-18T09:29:24.442Z,0.90
2023-02-18T09:34:27.717Z,1.20
2023-02-18T09:39:31.010Z,1.37
2023-02-18T09:44:39.562Z,1.50
2023-02-18T09:49:46.290Z,1.17
2023-02-18T09:54:50.214Z,1.20
2023-02-18T10:00:00.752Z,1.10
2023-02-18T10:05:04.407Z,1.20
2023-02-18T10:10:17.722Z,1.30
2023-02-18T10:15:25.162Z,1.10
2023-02-18T10:20:31.100Z,0.90
2023-02-18T10:25:39.646Z,1.10
2023-02-18T10:30:49.040Z,1.10
2023-02-18T10:35:55.594Z,0.90
2023-02-18T10:41:05.954Z,1.00
2023-02-18T10:46:20.996Z,1.20
2023-02-18T10:51:28.161Z,0.80
2023-02-18T10:56:39.029Z,1.00
2023-02-18T11:01:45.457Z,0.90
2023-02-18T11:06:50.506Z,1.10
2023-02-18T11:12:07.753Z,0.80
2023-02-18T11:17:19.193Z,1.10
2023-02-18T11:22:25.133Z,0.83
2023-02-18T11:27:36.043Z,0.80
2023-02-18T11:32:41.331Z,0.90
2023-02-18T11:43:12.614Z,0.80
2023-02-18T11:48:24.256Z,0.80
2023-02-18T11:53:31.622Z,0.80
2023-02-18T11:58:40.907Z,0.93
2023-02-18T12:03:49.772Z,0.90
2023-02-18T12:08:56.962Z,0.73
2023-02-18T12:14:00.434Z,0.90
2023-02-18T12:19:25.157Z,0.90
2023-02-18T12:24:41.042Z,0.80
2023-02-18T12:30:06.633Z,0.87
2023-02-18T12:35:34.215Z,0.90
2023-02-18T12:41:09.648Z,1.03
2023-02-18T12:46:25.449Z,1.03
2023-02-18T12:51:40.993Z,1.70
2023-02-18T12:57:06.348Z,1.70
2023-02-18T13:02:23.467Z,1.70
2023-02-18T13:08:04.180Z,2.00
2023-02-18T13:13:13.487Z,1.67
2023-02-18T13:18:22.643Z,1.70
2023-02-18T13:23:31.729Z,1.90
2023-02-18T13:28:44.458Z,1.50
2023-02-18T13:33:55.117Z,1.57
2023-02-18T13:39:08.108Z,1.60
2023-02-18T13:44:35.019Z,1.10
2023-02-18T13:49:41.019Z,2.10
2023-02-18T13:54:47.739Z,1.80
2023-02-18T13:59:57.215Z,2.57
2023-02-18T14:05:20.842Z,2.23
2023-02-18T14:10:35.766Z,1.30
2023-02-18T14:16:01.379Z,1.87
2023-02-18T14:21:36.018Z,1.93
2023-02-18T14:26:46.511Z,1.50
2023-02-18T14:31:56.167Z,1.37
2023-02-18T14:37:16.171Z,1.13
2023-02-18T14:42:31.175Z,1.50
2023-02-18T14:47:46.905Z,1.30
2023-02-18T14:52:53.053Z,1.23
2023-02-18T14:58:02.476Z,1.50
2023-02-18T15:03:09.647Z,1.60
2023-02-18T15:08:17.432Z,1.60
2023-02-18T15:13:26.860Z,1.30
2023-02-18T15:18:34.679Z,1.50
2023-02-18T15:23:40.978Z,1.30
2023-02-18T15:28:57.585Z,1.20
2023-02-18T15:34:00.648Z,1.40
2023-02-18T15:39:05.104Z,1.90
2023-02-18T15:44:09.627Z,1.80
2023-02-18T15:49:16.697Z,1.97
2023-02-18T15:54:21.700Z,1.70
2023-02-18T15:59:30.426Z,1.60
2023-02-18T16:04:35.640Z,1.10
2023-02-18T16:09:41.517Z,1.20
2023-02-18T16:14:49.278Z,1.30
2023-02-18T16:20:04.356Z,1.40
2023-02-18T16:25:17.575Z,1.23
2023-02-18T16:30:24.132Z,1.23
2023-02-18T16:35:40.462Z,1.20
2023-02-18T16:40:53.217Z,0.93
2023-02-18T16:45:59.880Z,1.17
2023-02-18T16:51:05.996Z,1.23
2023-02-18T16:56:15.447Z,2.00
2023-02-18T17:01:29.693Z,2.30
2023-02-18T17:06:33.803Z,2.50
2023-02-18T17:11:37.442Z,2.40
2023-02-18T17:16:43.135Z,3.07
2023-02-18T17:21:48.573Z,1.93
2023-02-18T17:26:51.977Z,1.67
2023-02-18T17:31:57.970Z,1.50
2023-02-18T17:37:01.061Z,1.70
2023-02-18T17:42:04.260Z,1.47
2023-02-18T17:47:08.753Z,1.50
2023-02-18T17:52:29.408Z,1.40
2023-02-18T17:57:32.499Z,1.40
2023-02-18T18:02:36.937Z,1.20
2023-02-18T18:07:40.032Z,1.30
2023-02-18T18:12:43.679Z,1.20
2023-02-18T18:17:48.201Z,1.50
2023-02-18T18:22:52.303Z,1.70
2023-02-18T18:27:55.698Z,1.50
2023-02-18T18:33:00.207Z,1.30
2023-02-18T18:38:03.818Z,1.20
2023-02-18T18:43:06.986Z,1.30
2023-02-18T18:48:11.467Z,1.30
2023-02-18T18:53:19.585Z,1.30
2023-02-18T18:58:24.606Z,1.40
2023-02-18T19:03:30.494Z,1.50
2023-02-18T19:08:34.276Z,1.20
2023-02-18T19:13:37.502Z,1.43
2023-02-18T19:18:42.078Z,1.10
2023-02-18T19:23:45.164Z,1.53
2023-02-18T19:28:48.255Z,1.57
2023-02-18T19:33:55.586Z,1.50
2023-02-18T19:38:59.392Z,1.40
2023-02-18T19:44:02.878Z,2.00
2023-02-18T19:49:07.406Z,1.47
2023-02-18T19:54:12.517Z,1.57
2023-02-18T19:59:15.666Z,1.53
2023-02-18T20:04:20.102Z,1.57
2023-02-18T20:09:23.234Z,1.47
2023-02-18T20:14:28.074Z,1.50
2023-02-18T20:19:33.651Z,1.30
2023-02-18T20:24:37.752Z,1.50
2023-02-18T20:29:40.936Z,1.73
2023-02-18T20:34:45.416Z,1.60
2023-02-18T20:39:48.492Z,1.80
2023-02-18T20:44:51.844Z,1.70
2023-02-18T20:49:56.300Z,2.00
2023-02-18T20:55:02.378Z,2.03
2023-02-18T21:00:06.627Z,2.00
2023-02-18T21:05:11.435Z,1.90
2023-02-18T21:10:14.655Z,1.93
2023-02-18T21:15:17.988Z,1.97
2023-02-18T21:20:22.542Z,2.10
2023-02-18T21:25:25.661Z,2.20
2023-02-18T21:30:29.639Z,2.13
2023-02-18T21:35:36.438Z,1.80
2023-02-18T21:40:47.469Z,2.00
2023-02-18T21:45:50.828Z,2.00
2023-02-18T21:51:01.461Z,1.80
2023-02-18T21:56:11.468Z,1.73
2023-02-18T22:01:16.734Z,1.60
2023-02-18T22:06:21.313Z,1.80
2023-02-18T22:11:24.497Z,1.60
2023-02-18T22:16:29.135Z,1.70
2023-02-18T22:21:35.346Z,1.50
2023-02-18T22:26:38.553Z,1.77
2023-02-18T22:31:44.014Z,1.40
2023-02-18T22:36:48.592Z,1.47
2023-02-18T22:41:51.841Z,1.70
2023-02-18T22:46:56.447Z,1.70
2023-02-18T22:52:01.022Z,1.60
2023-02-18T22:57:04.324Z,1.80
2023-02-18T23:02:07.428Z,1.50
2023-02-18T23:07:11.959Z,1.50
2023-02-18T23:12:15.327Z,1.70
2023-02-18T23:17:18.631Z,1.73
2023-02-18T23:22:32.272Z,1.67
2023-02-18T23:27:35.378Z,1.80
2023-02-18T23:32:39.383Z,1.70
2023-02-18T23:38:01.508Z,2.00
2023-02-18T23:43:04.613Z,1.87
2023-02-18T23:48:07.729Z,1.80
2023-02-18T23:53:12.188Z,1.90
2023-02-18T23:58:15.286Z,1.93
